sensor_id;sensor_type;location;lat;lon;timestamp;pressure;altitude;pressure_sealevel;temperature;humidity
51239;BME280;38154;47.548;18.828;2023-06-10T00:00:38;98377.91;;;14.79;100.00
51239;BME280;38154;47.548;18.828;2023-06-10T00:03:03;98375.25;;;14.80;100.00
51239;BME280;38154;47.548;18.828;2023-06-10T00:05:30;98377.00;;;14.81;100.00
51239;BME280;38154;47.548;18.828;2023-06-10T00:07:56;98370.63;;;14.92;100.00
51239;BME280;38154;47.548;18.828;2023-06-10T00:10:22;98371.94;;;15.10;100.00
51239;BME280;38154;47.548;18.828;2023-06-10T00:12:48;98366.03;;;15.01;100.00
51239;BME280;38154;47.548;18.828;2023-06-10T00:15:14;98365.34;;;14.93;100.00
51239;BME280;38154;47.548;18.828;2023-06-10T00:17:40;98360.22;;;14.87;100.00
51239;BME280;38154;47.548;18.828;2023-06-10T00:20:09;98362.06;;;14.83;100.00
51239;BME280;38154;47.548;18.828;2023-06-10T00:22:37;98363.94;;;14.78;100.00
51239;BME280;38154;47.548;18.828;2023-06-10T00:25:05;98357.94;;;14.72;100.00
51239;BME280;38154;47.548;18.828;2023-06-10T00:27:31;98354.56;;;14.67;100.00
51239;BME280;38154;47.548;18.828;2023-06-10T00:30:03;98355.44;;;14.65;100.00
51239;BME280;38154;47.548;18.828;2023-06-10T00:32:35;98363.34;;;14.64;100.00
51239;BME280;38154;47.548;18.828;2023-06-10T00:35:01;98355.47;;;14.64;100.00
51239;BME280;38154;47.548;18.828;2023-06-10T00:37:27;98361.69;;;14.58;100.00
51239;BME280;38154;47.548;18.828;2023-06-10T00:39:54;98359.09;;;14.58;100.00
51239;BME280;38154;47.548;18.828;2023-06-10T00:42:19;98359.19;;;14.52;100.00
51239;BME280;38154;47.548;18.828;2023-06-10T00:44:45;98363.69;;;14.47;100.00
51239;BME280;38154;47.548;18.828;2023-06-10T00:47:11;98355.06;;;14.40;100.00
51239;BME280;38154;47.548;18.828;2023-06-10T00:49:36;98364.75;;;14.38;100.00
51239;BME280;38154;47.548;18.828;2023-06-10T00:52:03;98356.94;;;14.35;100.00
51239;BME280;38154;47.548;18.828;2023-06-10T00:54:29;98361.41;;;14.30;100.00
51239;BME280;38154;47.548;18.828;2023-06-10T00:56:55;98353.56;;;14.28;100.00
51239;BME280;38154;47.548;18.828;2023-06-10T00:59:21;98362.47;;;14.21;100.00
51239;BME280;38154;47.548;18.828;2023-06-10T01:01:47;98359.97;;;14.15;100.00
51239;BME280;38154;47.548;18.828;2023-06-10T01:04:13;98365.25;;;14.12;100.00
51239;BME280;38154;47.548;18.828;2023-06-10T01:06:41;98365.22;;;14.15;100.00
51239;BME280;38154;47.548;18.828;2023-06-10T01:11:45;98369.59;;;14.15;100.00
51239;BME280;38154;47.548;18.828;2023-06-10T01:14:12;98365.22;;;14.14;100.00
51239;BME280;38154;47.548;18.828;2023-06-10T01:16:39;98364.47;;;14.08;100.00
51239;BME280;38154;47.548;18.828;2023-06-10T01:19:06;98364.50;;;14.07;100.00
51239;BME280;38154;47.548;18.828;2023-06-10T01:21:33;98367.91;;;14.10;100.00
51239;BME280;38154;47.548;18.828;2023-06-10T01:23:58;98373.16;;;14.10;100.00
51239;BME280;38154;47.548;18.828;2023-06-10T01:26:33;98365.19;;;14.17;100.00
51239;BME280;38154;47.548;18.828;2023-06-10T01:34:12;98359.16;;;14.12;100.00
51239;BME280;38154;47.548;18.828;2023-06-10T01:36:38;98364.38;;;14.13;100.00
51239;BME280;38154;47.548;18.828;2023-06-10T01:39:05;98360.03;;;14.10;100.00
51239;BME280;38154;47.548;18.828;2023-06-10T01:41:31;98363.31;;;14.22;100.00
51239;BME280;38154;47.548;18.828;2023-06-10T01:43:57;98360.75;;;14.19;100.00
51239;BME280;38154;47.548;18.828;2023-06-10T01:46:23;98368.69;;;14.16;100.00
51239;BME280;38154;47.548;18.828;2023-06-10T01:48:48;98367.97;;;14.07;100.00
51239;BME280;38154;47.548;18.828;2023-06-10T01:51:14;98368.06;;;14.04;100.00
51239;BME280;38154;47.548;18.828;2023-06-10T01:53:40;98365.47;;;14.01;100.00
51239;BME280;38154;47.548;18.828;2023-06-10T01:56:06;98369.00;;;14.00;100.00
51239;BME280;38154;47.548;18.828;2023-06-10T01:58:31;98359.31;;;14.02;100.00
51239;BME280;38154;47.548;18.828;2023-06-10T02:00:57;98363.50;;;14.13;100.00
51239;BME280;38154;47.548;18.828;2023-06-10T02:03:23;98360.69;;;14.23;100.00
51239;BME280;38154;47.548;18.828;2023-06-10T02:05:49;98357.75;;;14.37;100.00
51239;BME280;38154;47.548;18.828;2023-06-10T02:08:14;98364.66;;;14.43;100.00
51239;BME280;38154;47.548;18.828;2023-06-10T02:10:40;98368.03;;;14.48;100.00
51239;BME280;38154;47.548;18.828;2023-06-10T02:13:06;98374.16;;;14.48;100.00
51239;BME280;38154;47.548;18.828;2023-06-10T02:15:32;98368.16;;;14.42;100.00
51239;BME280;38154;47.548;18.828;2023-06-10T02:17:58;98372.53;;;14.43;100.00
51239;BME280;38154;47.548;18.828;2023-06-10T02:20:24;98369.81;;;14.46;100.00
51239;BME280;38154;47.548;18.828;2023-06-10T02:22:49;98370.66;;;14.48;100.00
51239;BME280;38154;47.548;18.828;2023-06-10T02:25:15;98368.84;;;14.52;100.00
51239;BME280;38154;47.548;18.828;2023-06-10T02:27:41;98363.53;;;14.55;100.00
51239;BME280;38154;47.548;18.828;2023-06-10T02:30:07;98366.97;;;14.60;100.00
51239;BME280;38154;47.548;18.828;2023-06-10T02:32:35;98372.94;;;14.67;100.00
51239;BME280;38154;47.548;18.828;2023-06-10T02:35:00;98368.41;;;14.73;100.00
51239;BME280;38154;47.548;18.828;2023-06-10T02:37:26;98373.50;;;14.79;100.00
51239;BME280;38154;47.548;18.828;2023-06-10T02:39:52;98372.53;;;14.85;100.00
51239;BME280;38154;47.548;18.828;2023-06-10T02:42:18;98373.09;;;14.98;100.00
51239;BME280;38154;47.548;18.828;2023-06-10T02:44:43;98370.34;;;15.04;100.00
51239;BME280;38154;47.548;18.828;2023-06-10T02:47:09;98371.03;;;15.12;100.00
51239;BME280;38154;47.548;18.828;2023-06-10T02:49:35;98368.63;;;15.39;100.00
51239;BME280;38154;47.548;18.828;2023-06-10T02:52:01;98374.56;;;15.47;100.00
51239;BME280;38154;47.548;18.828;2023-06-10T02:54:27;98375.22;;;15.55;100.00
51239;BME280;38154;47.548;18.828;2023-06-10T02:56:52;98371.59;;;15.59;100.00
51239;BME280;38154;47.548;18.828;2023-06-10T02:59:18;98376.13;;;15.54;100.00
51239;BME280;38154;47.548;18.828;2023-06-10T03:01:46;98377.25;;;15.44;100.00
51239;BME280;38154;47.548;18.828;2023-06-10T03:04:12;98375.63;;;15.40;100.00
51239;BME280;38154;47.548;18.828;2023-06-10T03:06:39;98376.63;;;15.34;100.00
51239;BME280;38154;47.548;18.828;2023-06-10T03:09:06;98372.41;;;15.27;100.00
51239;BME280;38154;47.548;18.828;2023-06-10T03:11:33;98374.28;;;15.22;100.00
51239;BME280;38154;47.548;18.828;2023-06-10T03:13:58;98368.31;;;15.15;100.00
51239;BME280;38154;47.548;18.828;2023-06-10T03:16:24;98377.13;;;15.13;100.00
51239;BME280;38154;47.548;18.828;2023-06-10T03:18:53;98374.53;;;15.11;100.00
51239;BME280;38154;47.548;18.828;2023-06-10T03:21:18;98374.59;;;15.08;100.00
51239;BME280;38154;47.548;18.828;2023-06-10T03:23:45;98376.34;;;15.09;100.00
51239;BME280;38154;47.548;18.828;2023-06-10T03:26:11;98375.16;;;15.23;100.00
51239;BME280;38154;47.548;18.828;2023-06-10T03:28:37;98375.97;;;15.25;100.00
51239;BME280;38154;47.548;18.828;2023-06-10T03:31:03;98380.25;;;15.29;100.00
51239;BME280;38154;47.548;18.828;2023-06-10T03:33:29;98375.78;;;15.32;100.00
51239;BME280;38154;47.548;18.828;2023-06-10T03:35:55;98380.88;;;15.40;100.00
51239;BME280;38154;47.548;18.828;2023-06-10T03:38:21;98380.47;;;15.55;100.00
51239;BME280;38154;47.548;18.828;2023-06-10T03:40:47;98373.09;;;15.70;100.00
51239;BME280;38154;47.548;18.828;2023-06-10T03:43:12;98383.41;;;15.79;100.00
51239;BME280;38154;47.548;18.828;2023-06-10T03:45:38;98384.16;;;15.84;100.00
51239;BME280;38154;47.548;18.828;2023-06-10T03:48:04;98381.25;;;15.93;100.00
51239;BME280;38154;47.548;18.828;2023-06-10T03:50:30;98378.37;;;16.04;100.00
51239;BME280;38154;47.548;18.828;2023-06-10T03:52:55;98389.31;;;16.20;100.00
51239;BME280;38154;47.548;18.828;2023-06-10T03:55:21;98389.06;;;16.29;100.00
51239;BME280;38154;47.548;18.828;2023-06-10T03:57:49;98384.19;;;16.47;100.00
51239;BME280;38154;47.548;18.828;2023-06-10T04:00:15;98388.69;;;16.73;100.00
51239;BME280;38154;47.548;18.828;2023-06-10T04:02:41;98380.03;;;16.99;100.00
51239;BME280;38154;47.548;18.828;2023-06-10T04:05:13;98379.31;;;17.21;100.00
51239;BME280;38154;47.548;18.828;2023-06-10T04:07:39;98371.75;;;17.38;100.00
51239;BME280;38154;47.548;18.828;2023-06-10T04:10:06;98375.03;;;17.72;100.00
51239;BME280;38154;47.548;18.828;2023-06-10T04:12:32;98378.53;;;17.99;100.00
51239;BME280;38154;47.548;18.828;2023-06-10T04:14:58;98369.59;;;18.52;100.00
51239;BME280;38154;47.548;18.828;2023-06-10T04:17:24;98366.31;;;19.15;100.00
51239;BME280;38154;47.548;18.828;2023-06-10T04:19:49;98366.59;;;19.51;100.00
51239;BME280;38154;47.548;18.828;2023-06-10T04:22:16;98374.00;;;19.63;100.00
51239;BME280;38154;47.548;18.828;2023-06-10T04:24:42;98375.22;;;19.97;100.00
51239;BME280;38154;47.548;18.828;2023-06-10T04:27:08;98379.47;;;20.41;100.00
51239;BME280;38154;47.548;18.828;2023-06-10T04:29:34;98375.00;;;20.43;100.00
51239;BME280;38154;47.548;18.828;2023-06-10T04:31:59;98377.94;;;20.56;100.00
51239;BME280;38154;47.548;18.828;2023-06-10T04:34:27;98381.25;;;20.99;100.00
51239;BME280;38154;47.548;18.828;2023-06-10T04:36:52;98372.81;;;21.10;100.00
51239;BME280;38154;47.548;18.828;2023-06-10T04:39:18;98373.16;;;21.02;100.00
51239;BME280;38154;47.548;18.828;2023-06-10T04:41:45;98379.00;;;20.52;100.00
51239;BME280;38154;47.548;18.828;2023-06-10T04:44:11;98382.16;;;20.20;100.00
51239;BME280;38154;47.548;18.828;2023-06-10T04:46:37;98380.09;;;19.88;100.00
51239;BME280;38154;47.548;18.828;2023-06-10T04:49:03;98379.22;;;20.08;100.00
51239;BME280;38154;47.548;18.828;2023-06-10T04:51:30;98375.50;;;20.12;100.00
51239;BME280;38154;47.548;18.828;2023-06-10T04:53:57;98373.19;;;19.83;100.00
51239;BME280;38154;47.548;18.828;2023-06-10T04:56:23;98372.53;;;19.56;100.00
51239;BME280;38154;47.548;18.828;2023-06-10T04:58:49;98371.03;;;19.51;100.00
51239;BME280;38154;47.548;18.828;2023-06-10T05:01:15;98368.22;;;19.54;100.00
51239;BME280;38154;47.548;18.828;2023-06-10T05:03:41;98377.37;;;19.67;100.00
51239;BME280;38154;47.548;18.828;2023-06-10T05:06:06;98381.56;;;19.73;100.00
51239;BME280;38154;47.548;18.828;2023-06-10T05:08:33;98374.66;;;19.69;100.00
51239;BME280;38154;47.548;18.828;2023-06-10T05:10:58;98384.50;;;19.87;100.00
51239;BME280;38154;47.548;18.828;2023-06-10T05:13:24;98391.72;;;20.25;100.00
51239;BME280;38154;47.548;18.828;2023-06-10T05:15:49;98385.87;;;20.16;100.00
51239;BME280;38154;47.548;18.828;2023-06-10T05:18:15;98385.97;;;20.15;100.00
51239;BME280;38154;47.548;18.828;2023-06-10T05:20:41;98399.31;;;20.12;100.00
51239;BME280;38154;47.548;18.828;2023-06-10T05:23:06;98409.06;;;20.11;100.00
51239;BME280;38154;47.548;18.828;2023-06-10T05:25:32;98407.66;;;20.23;100.00
51239;BME280;38154;47.548;18.828;2023-06-10T05:27:58;98401.69;;;20.57;100.00
51239;BME280;38154;47.548;18.828;2023-06-10T05:30:24;98402.63;;;20.77;100.00
51239;BME280;38154;47.548;18.828;2023-06-10T05:32:51;98407.00;;;20.57;100.00
51239;BME280;38154;47.548;18.828;2023-06-10T05:35:16;98400.97;;;20.54;100.00
51239;BME280;38154;47.548;18.828;2023-06-10T05:37:42;98403.13;;;20.66;100.00
51239;BME280;38154;47.548;18.828;2023-06-10T05:40:08;98401.50;;;20.62;100.00
51239;BME280;38154;47.548;18.828;2023-06-10T05:42:34;98405.41;;;20.93;100.00
51239;BME280;38154;47.548;18.828;2023-06-10T05:44:59;98392.66;;;21.20;100.00
51239;BME280;38154;47.548;18.828;2023-06-10T05:47:25;98398.13;;;21.35;100.00
51239;BME280;38154;47.548;18.828;2023-06-10T05:49:51;98403.50;;;21.70;100.00
51239;BME280;38154;47.548;18.828;2023-06-10T05:52:17;98406.16;;;22.39;100.00
51239;BME280;38154;47.548;18.828;2023-06-10T05:54:43;98408.75;;;22.90;97.60
51239;BME280;38154;47.548;18.828;2023-06-10T05:57:09;98404.03;;;22.46;97.24
51239;BME280;38154;47.548;18.828;2023-06-10T05:59:35;98406.47;;;22.33;96.98
51239;BME280;38154;47.548;18.828;2023-06-10T06:02:01;98400.84;;;22.39;95.69
51239;BME280;38154;47.548;18.828;2023-06-10T06:04:27;98395.78;;;22.17;100.00
51239;BME280;38154;47.548;18.828;2023-06-10T06:06:52;98402.19;;;22.13;99.16
51239;BME280;38154;47.548;18.828;2023-06-10T06:09:18;98400.78;;;22.41;98.57
51239;BME280;38154;47.548;18.828;2023-06-10T06:11:44;98396.12;;;22.78;100.00
51239;BME280;38154;47.548;18.828;2023-06-10T06:14:09;98405.78;;;23.28;91.21
51239;BME280;38154;47.548;18.828;2023-06-10T06:16:35;98401.69;;;23.69;87.46
51239;BME280;38154;47.548;18.828;2023-06-10T06:19:00;98411.34;;;24.75;80.74
51239;BME280;38154;47.548;18.828;2023-06-10T06:21:26;98412.84;;;25.90;75.82
51239;BME280;38154;47.548;18.828;2023-06-10T06:23:52;98414.81;;;27.89;66.34
51239;BME280;38154;47.548;18.828;2023-06-10T06:26:17;98426.41;;;29.60;54.44
51239;BME280;38154;47.548;18.828;2023-06-10T06:28:43;98427.06;;;30.06;52.52
51239;BME280;38154;47.548;18.828;2023-06-10T06:31:09;98434.22;;;29.64;52.70
51239;BME280;38154;47.548;18.828;2023-06-10T06:33:35;98439.47;;;29.54;52.21
51239;BME280;38154;47.548;18.828;2023-06-10T06:36:00;98434.12;;;29.86;52.64
51239;BME280;38154;47.548;18.828;2023-06-10T06:38:26;98447.03;;;32.08;44.72
51239;BME280;38154;47.548;18.828;2023-06-10T06:40:52;98454.66;;;33.55;40.80
51239;BME280;38154;47.548;18.828;2023-06-10T06:43:17;98452.00;;;34.71;37.74
51239;BME280;38154;47.548;18.828;2023-06-10T06:45:44;98447.56;;;33.54;38.81
51239;BME280;38154;47.548;18.828;2023-06-10T06:48:10;98439.00;;;32.65;40.87
51239;BME280;38154;47.548;18.828;2023-06-10T06:50:36;98449.38;;;34.17;37.27
51239;BME280;38154;47.548;18.828;2023-06-10T06:53:02;98450.50;;;34.24;36.81
51239;BME280;38154;47.548;18.828;2023-06-10T06:55:28;98447.63;;;35.47;35.42
51239;BME280;38154;47.548;18.828;2023-06-10T06:57:53;98456.94;;;36.28;34.37
51239;BME280;38154;47.548;18.828;2023-06-10T07:00:19;98462.16;;;36.87;31.59
51239;BME280;38154;47.548;18.828;2023-06-10T07:02:45;98464.47;;;36.99;31.55
51239;BME280;38154;47.548;18.828;2023-06-10T07:05:11;98446.31;;;33.48;36.42
51239;BME280;38154;47.548;18.828;2023-06-10T07:07:36;98438.56;;;32.70;38.43
51239;BME280;38154;47.548;18.828;2023-06-10T07:10:02;98444.38;;;34.22;36.37
51239;BME280;38154;47.548;18.828;2023-06-10T07:12:28;98448.69;;;35.11;34.55
51239;BME280;38154;47.548;18.828;2023-06-10T07:14:53;98448.94;;;36.02;33.15
51239;BME280;38154;47.548;18.828;2023-06-10T07:17:19;98455.72;;;35.90;32.81
51239;BME280;38154;47.548;18.828;2023-06-10T07:19:45;98449.19;;;35.66;34.85
51239;BME280;38154;47.548;18.828;2023-06-10T07:22:11;98455.56;;;36.08;32.96
51239;BME280;38154;47.548;18.828;2023-06-10T07:24:36;98447.94;;;36.44;32.02
51239;BME280;38154;47.548;18.828;2023-06-10T07:27:02;98442.81;;;36.82;32.22
51239;BME280;38154;47.548;18.828;2023-06-10T07:29:28;98455.81;;;37.03;30.78
51239;BME280;38154;47.548;18.828;2023-06-10T07:31:53;98452.72;;;38.09;30.43
51239;BME280;38154;47.548;18.828;2023-06-10T07:34:19;98449.22;;;38.76;29.04
51239;BME280;38154;47.548;18.828;2023-06-10T07:36:45;98458.34;;;38.68;27.92
51239;BME280;38154;47.548;18.828;2023-06-10T07:39:10;98450.19;;;38.68;27.76
51239;BME280;38154;47.548;18.828;2023-06-10T07:41:36;98454.31;;;39.39;28.35
51239;BME280;38154;47.548;18.828;2023-06-10T07:44:02;98459.84;;;39.82;27.78
51239;BME280;38154;47.548;18.828;2023-06-10T07:46:27;98460.16;;;39.21;26.97
51239;BME280;38154;47.548;18.828;2023-06-10T07:48:53;98452.28;;;37.97;28.83
51239;BME280;38154;47.548;18.828;2023-06-10T07:51:19;98444.81;;;35.65;32.37
51239;BME280;38154;47.548;18.828;2023-06-10T07:53:45;98447.69;;;35.63;33.57
51239;BME280;38154;47.548;18.828;2023-06-10T07:56:11;98443.69;;;36.17;31.79
51239;BME280;38154;47.548;18.828;2023-06-10T07:58:36;98446.56;;;35.91;32.74
51239;BME280;38154;47.548;18.828;2023-06-10T08:01:02;98441.97;;;35.24;32.18
51239;BME280;38154;47.548;18.828;2023-06-10T08:03:28;98443.66;;;35.84;34.08
51239;BME280;38154;47.548;18.828;2023-06-10T08:05:53;98443.94;;;34.79;34.28
51239;BME280;38154;47.548;18.828;2023-06-10T08:08:19;98439.19;;;35.16;34.44
51239;BME280;38154;47.548;18.828;2023-06-10T08:10:45;98448.16;;;36.99;29.82
51239;BME280;38154;47.548;18.828;2023-06-10T08:13:10;98438.56;;;36.55;30.37
51239;BME280;38154;47.548;18.828;2023-06-10T08:15:36;98446.37;;;37.62;31.06
51239;BME280;38154;47.548;18.828;2023-06-10T08:18:02;98448.91;;;37.72;29.25
51239;BME280;38154;47.548;18.828;2023-06-10T08:20:27;98447.06;;;37.33;30.27
51239;BME280;38154;47.548;18.828;2023-06-10T08:22:53;98446.22;;;37.24;29.90
51239;BME280;38154;47.548;18.828;2023-06-10T08:25:18;98439.25;;;36.73;31.29
51239;BME280;38154;47.548;18.828;2023-06-10T08:27:46;98436.19;;;36.52;30.43
51239;BME280;38154;47.548;18.828;2023-06-10T08:30:12;98439.41;;;36.72;31.21
51239;BME280;38154;47.548;18.828;2023-06-10T08:32:38;98441.62;;;38.10;30.10
51239;BME280;38154;47.548;18.828;2023-06-10T08:35:04;98439.00;;;37.00;30.00
51239;BME280;38154;47.548;18.828;2023-06-10T08:37:30;98433.88;;;36.24;31.76
51239;BME280;38154;47.548;18.828;2023-06-10T08:39:56;98427.62;;;36.24;32.28
51239;BME280;38154;47.548;18.828;2023-06-10T08:42:28;98425.22;;;36.29;30.19
51239;BME280;38154;47.548;18.828;2023-06-10T08:44:55;98431.81;;;36.51;30.77
51239;BME280;38154;47.548;18.828;2023-06-10T08:47:24;98430.28;;;35.99;31.87
51239;BME280;38154;47.548;18.828;2023-06-10T08:49:51;98437.16;;;36.92;31.56
51239;BME280;38154;47.548;18.828;2023-06-10T08:52:19;98426.84;;;36.79;29.33
51239;BME280;38154;47.548;18.828;2023-06-10T08:54:52;98425.09;;;36.94;30.82
51239;BME280;38154;47.548;18.828;2023-06-10T08:57:18;98428.06;;;37.24;31.33
51239;BME280;38154;47.548;18.828;2023-06-10T08:59:46;98427.84;;;37.34;29.65
51239;BME280;38154;47.548;18.828;2023-06-10T09:02:12;98420.25;;;37.21;30.80
51239;BME280;38154;47.548;18.828;2023-06-10T09:04:38;98426.22;;;37.48;30.25
51239;BME280;38154;47.548;18.828;2023-06-10T09:07:04;98422.13;;;37.12;29.18
51239;BME280;38154;47.548;18.828;2023-06-10T09:09:30;98419.72;;;37.26;32.16
51239;BME280;38154;47.548;18.828;2023-06-10T09:11:56;98416.31;;;37.55;29.35
51239;BME280;38154;47.548;18.828;2023-06-10T09:14:22;98417.38;;;37.77;27.79
51239;BME280;38154;47.548;18.828;2023-06-10T09:16:49;98420.94;;;38.01;28.65
51239;BME280;38154;47.548;18.828;2023-06-10T09:19:15;98416.78;;;37.90;29.14
51239;BME280;38154;47.548;18.828;2023-06-10T09:21:41;98410.44;;;37.75;29.33
51239;BME280;38154;47.548;18.828;2023-06-10T09:24:07;98409.19;;;37.54;30.68
51239;BME280;38154;47.548;18.828;2023-06-10T09:26:32;98401.31;;;38.14;29.94
51239;BME280;38154;47.548;18.828;2023-06-10T09:29:04;98401.16;;;38.30;28.55
51239;BME280;38154;47.548;18.828;2023-06-10T09:31:30;98395.44;;;37.79;28.48
51239;BME280;38154;47.548;18.828;2023-06-10T09:34:12;98399.84;;;37.17;28.94
51239;BME280;38154;47.548;18.828;2023-06-10T09:36:38;98390.03;;;35.53;31.32
51239;BME280;38154;47.548;18.828;2023-06-10T09:39:04;98395.88;;;33.57;34.77
51239;BME280;38154;47.548;18.828;2023-06-10T09:41:39;98393.69;;;32.49;38.06
51239;BME280;38154;47.548;18.828;2023-06-10T09:44:27;98383.00;;;31.52;38.44
51239;BME280;38154;47.548;18.828;2023-06-10T09:46:51;98389.53;;;30.68;39.37
51239;BME280;38154;47.548;18.828;2023-06-10T09:49:17;98377.94;;;29.51;40.99
51239;BME280;38154;47.548;18.828;2023-06-10T09:51:49;98375.34;;;29.60;43.48
51239;BME280;38154;47.548;18.828;2023-06-10T09:54:16;98375.34;;;29.60;43.67
51239;BME280;38154;47.548;18.828;2023-06-10T09:56:41;98371.28;;;29.34;43.73
51239;BME280;38154;47.548;18.828;2023-06-10T09:59:08;98378.88;;;29.29;42.54
51239;BME280;38154;47.548;18.828;2023-06-10T10:01:34;98375.44;;;29.70;41.59
51239;BME280;38154;47.548;18.828;2023-06-10T10:03:59;98372.84;;;30.01;46.16
51239;BME280;38154;47.548;18.828;2023-06-10T10:06:26;98371.00;;;30.23;42.45
51239;BME280;38154;47.548;18.828;2023-06-10T10:08:52;98373.47;;;29.40;41.87
51239;BME280;38154;47.548;18.828;2023-06-10T10:11:19;98363.66;;;29.50;42.35
51239;BME280;38154;47.548;18.828;2023-06-10T10:13:48;98367.47;;;28.59;43.04
51239;BME280;38154;47.548;18.828;2023-06-10T10:16:17;98367.66;;;28.10;48.84
51239;BME280;38154;47.548;18.828;2023-06-10T10:18:45;98372.41;;;28.29;47.25
51239;BME280;38154;47.548;18.828;2023-06-10T10:21:11;98362.16;;;28.23;48.03
51239;BME280;38154;47.548;18.828;2023-06-10T10:23:53;98365.09;;;28.20;49.34
51239;BME280;38154;47.548;18.828;2023-06-10T10:26:23;98359.34;;;27.78;50.21
51239;BME280;38154;47.548;18.828;2023-06-10T10:28:53;98355.31;;;27.37;52.96
51239;BME280;38154;47.548;18.828;2023-06-10T10:31:22;98348.19;;;26.62;61.01
51239;BME280;38154;47.548;18.828;2023-06-10T10:33:54;98352.28;;;26.68;62.97
51239;BME280;38154;47.548;18.828;2023-06-10T10:36:21;98350.81;;;27.00;60.64
51239;BME280;38154;47.548;18.828;2023-06-10T10:38:47;98358.72;;;28.10;54.48
51239;BME280;38154;47.548;18.828;2023-06-10T10:41:14;98354.25;;;28.33;55.81
51239;BME280;38154;47.548;18.828;2023-06-10T10:43:41;98355.09;;;28.11;53.56
51239;BME280;38154;47.548;18.828;2023-06-10T10:46:11;98350.88;;;28.42;55.67
51239;BME280;38154;47.548;18.828;2023-06-10T10:48:37;98347.25;;;30.49;44.74
51239;BME280;38154;47.548;18.828;2023-06-10T10:51:03;98353.59;;;32.17;39.62
51239;BME280;38154;47.548;18.828;2023-06-10T10:53:29;98353.22;;;34.23;37.61
51239;BME280;38154;47.548;18.828;2023-06-10T10:59:05;98352.88;;;30.77;43.46
51239;BME280;38154;47.548;18.828;2023-06-10T11:01:43;98337.53;;;29.20;50.14
51239;BME280;38154;47.548;18.828;2023-06-10T11:04:11;98337.22;;;27.87;51.46
51239;BME280;38154;47.548;18.828;2023-06-10T11:06:37;98327.22;;;27.43;52.14
51239;BME280;38154;47.548;18.828;2023-06-10T11:11:50;98327.19;;;27.78;52.03
51239;BME280;38154;47.548;18.828;2023-06-10T11:14:16;98329.16;;;27.41;54.61
51239;BME280;38154;47.548;18.828;2023-06-10T11:16:51;98314.91;;;26.79;56.41
51239;BME280;38154;47.548;18.828;2023-06-10T11:19:33;98318.31;;;26.05;60.86
51239;BME280;38154;47.548;18.828;2023-06-10T11:22:05;98317.63;;;25.89;61.91
51239;BME280;38154;47.548;18.828;2023-06-10T11:24:31;98308.91;;;26.88;58.63
51239;BME280;38154;47.548;18.828;2023-06-10T11:27:16;98310.84;;;27.70;53.53
51239;BME280;38154;47.548;18.828;2023-06-10T11:29:55;98315.00;;;28.77;53.11
51239;BME280;38154;47.548;18.828;2023-06-10T11:32:21;98316.81;;;29.43;45.97
51239;BME280;38154;47.548;18.828;2023-06-10T11:34:51;98314.88;;;28.45;49.04
51239;BME280;38154;47.548;18.828;2023-06-10T11:37:17;98316.59;;;27.65;53.99
51239;BME280;38154;47.548;18.828;2023-06-10T11:39:43;98308.72;;;27.02;54.16
51239;BME280;38154;47.548;18.828;2023-06-10T11:42:09;98312.34;;;26.77;54.56
51239;BME280;38154;47.548;18.828;2023-06-10T11:44:35;98310.97;;;27.33;53.78
51239;BME280;38154;47.548;18.828;2023-06-10T11:47:03;98310.84;;;28.17;52.16
51239;BME280;38154;47.548;18.828;2023-06-10T11:49:29;98309.53;;;28.11;51.46
51239;BME280;38154;47.548;18.828;2023-06-10T11:51:54;98315.25;;;27.71;47.73
51239;BME280;38154;47.548;18.828;2023-06-10T11:54:20;98307.03;;;27.26;51.87
51239;BME280;38154;47.548;18.828;2023-06-10T11:56:47;98305.53;;;26.73;56.46
51239;BME280;38154;47.548;18.828;2023-06-10T11:59:13;98300.44;;;26.32;54.56
51239;BME280;38154;47.548;18.828;2023-06-10T12:01:43;98305.06;;;26.29;55.99
51239;BME280;38154;47.548;18.828;2023-06-10T12:04:10;98312.03;;;27.06;53.84
51239;BME280;38154;47.548;18.828;2023-06-10T12:09:15;98312.06;;;27.30;54.76
51239;BME280;38154;47.548;18.828;2023-06-10T12:11:42;98308.19;;;27.70;52.89
51239;BME280;38154;47.548;18.828;2023-06-10T12:14:08;98303.81;;;27.80;51.38
51239;BME280;38154;47.548;18.828;2023-06-10T12:16:34;98308.44;;;28.25;50.07
51239;BME280;38154;47.548;18.828;2023-06-10T12:19:03;98304.69;;;27.81;47.40
51239;BME280;38154;47.548;18.828;2023-06-10T12:21:29;98297.09;;;28.33;47.90
51239;BME280;38154;47.548;18.828;2023-06-10T12:24:01;98292.03;;;28.96;46.13
51239;BME280;38154;47.548;18.828;2023-06-10T12:26:44;98293.44;;;28.34;46.62
51239;BME280;38154;47.548;18.828;2023-06-10T12:29:17;98288.66;;;28.48;45.93
51239;BME280;38154;47.548;18.828;2023-06-10T12:32:03;98280.75;;;28.13;47.63
51239;BME280;38154;47.548;18.828;2023-06-10T12:34:34;98280.28;;;28.08;48.76
51239;BME280;38154;47.548;18.828;2023-06-10T12:37:01;98278.63;;;27.12;51.53
51239;BME280;38154;47.548;18.828;2023-06-10T12:39:28;98275.31;;;26.84;54.75
51239;BME280;38154;47.548;18.828;2023-06-10T12:41:53;98276.69;;;26.40;56.91
51239;BME280;38154;47.548;18.828;2023-06-10T12:44:28;98278.09;;;25.68;59.97
51239;BME280;38154;47.548;18.828;2023-06-10T12:46:54;98274.41;;;24.48;68.92
51239;BME280;38154;47.548;18.828;2023-06-10T12:49:20;98271.59;;;23.93;75.59
51239;BME280;38154;47.548;18.828;2023-06-10T12:51:46;98262.22;;;23.71;83.26
51239;BME280;38154;47.548;18.828;2023-06-10T12:54:12;98271.03;;;23.27;90.62
51239;BME280;38154;47.548;18.828;2023-06-10T12:56:38;98266.19;;;23.04;98.03
51239;BME280;38154;47.548;18.828;2023-06-10T12:59:04;98265.44;;;22.86;100.00